sensor_id;sensor_type;location;lat;lon;timestamp;temperature;humidity
66608;DHT22;53462;39.616;8.824;2024-02-21T00:01:04;8.70;99.90
66608;DHT22;53462;39.616;8.824;2024-02-21T00:03:30;8.80;99.90
66608;DHT22;53462;39.616;8.824;2024-02-21T00:05:56;8.90;99.90
66608;DHT22;53462;39.616;8.824;2024-02-21T00:08:21;8.90;99.90
66608;DHT22;53462;39.616;8.824;2024-02-21T00:10:47;8.90;99.90
66608;DHT22;53462;39.616;8.824;2024-02-21T00:13:15;8.80;99.90
66608;DHT22;53462;39.616;8.824;2024-02-21T00:15:41;8.80;99.90
66608;DHT22;53462;39.616;8.824;2024-02-21T00:18:06;8.50;99.90
66608;DHT22;53462;39.616;8.824;2024-02-21T00:20:32;8.30;99.90
66608;DHT22;53462;39.616;8.824;2024-02-21T00:22:58;8.40;99.90
66608;DHT22;53462;39.616;8.824;2024-02-21T00:25:24;8.40;99.90
66608;DHT22;53462;39.616;8.824;2024-02-21T00:27:50;8.30;99.90
66608;DHT22;53462;39.616;8.824;2024-02-21T00:30:16;8.30;99.90
66608;DHT22;53462;39.616;8.824;2024-02-21T00:32:42;8.30;99.90
66608;DHT22;53462;39.616;8.824;2024-02-21T00:35:08;8.50;99.90
66608;DHT22;53462;39.616;8.824;2024-02-21T00:37:34;8.50;99.90
66608;DHT22;53462;39.616;8.824;2024-02-21T00:39:59;8.40;99.90
66608;DHT22;53462;39.616;8.824;2024-02-21T00:42:25;8.50;99.90
66608;DHT22;53462;39.616;8.824;2024-02-21T00:44:51;8.30;99.90
66608;DHT22;53462;39.616;8.824;2024-02-21T00:47:17;8.10;99.90
66608;DHT22;53462;39.616;8.824;2024-02-21T00:49:43;8.10;99.90
66608;DHT22;53462;39.616;8.824;2024-02-21T00:52:09;7.90;99.90
66608;DHT22;53462;39.616;8.824;2024-02-21T00:54:35;7.70;99.90
66608;DHT22;53462;39.616;8.824;2024-02-21T00:57:00;7.70;99.90
66608;DHT22;53462;39.616;8.824;2024-02-21T00:59:26;7.80;99.90
66608;DHT22;53462;39.616;8.824;2024-02-21T01:01:52;7.90;99.90
66608;DHT22;53462;39.616;8.824;2024-02-21T01:04:18;7.90;99.90
66608;DHT22;53462;39.616;8.824;2024-02-21T01:06:44;8.00;99.90
66608;DHT22;53462;39.616;8.824;2024-02-21T01:09:11;8.00;99.90
66608;DHT22;53462;39.616;8.824;2024-02-21T01:11:37;8.00;99.90
66608;DHT22;53462;39.616;8.824;2024-02-21T01:14:03;8.00;99.90
66608;DHT22;53462;39.616;8.824;2024-02-21T01:16:28;7.70;99.90
66608;DHT22;53462;39.616;8.824;2024-02-21T01:18:54;7.50;99.90
66608;DHT22;53462;39.616;8.824;2024-02-21T01:21:20;7.20;99.90
66608;DHT22;53462;39.616;8.824;2024-02-21T01:23:46;7.30;99.90
66608;DHT22;53462;39.616;8.824;2024-02-21T01:26:12;7.50;99.90
66608;DHT22;53462;39.616;8.824;2024-02-21T01:28:41;7.70;99.90
66608;DHT22;53462;39.616;8.824;2024-02-21T01:31:07;7.90;99.90
66608;DHT22;53462;39.616;8.824;2024-02-21T01:33:33;7.90;99.90
66608;DHT22;53462;39.616;8.824;2024-02-21T01:36:04;8.10;99.90
66608;DHT22;53462;39.616;8.824;2024-02-21T01:38:32;8.10;99.90
66608;DHT22;53462;39.616;8.824;2024-02-21T01:40:58;8.10;99.90
66608;DHT22;53462;39.616;8.824;2024-02-21T01:43:24;8.20;99.90
66608;DHT22;53462;39.616;8.824;2024-02-21T01:45:52;8.20;99.90
66608;DHT22;53462;39.616;8.824;2024-02-21T01:48:18;8.30;99.90
66608;DHT22;53462;39.616;8.824;2024-02-21T01:50:48;8.30;99.90
66608;DHT22;53462;39.616;8.824;2024-02-21T01:53:18;8.30;99.90
66608;DHT22;53462;39.616;8.824;2024-02-21T01:55:45;8.30;99.90
66608;DHT22;53462;39.616;8.824;2024-02-21T01:58:15;8.40;99.90
66608;DHT22;53462;39.616;8.824;2024-02-21T02:00:45;8.30;99.90
66608;DHT22;53462;39.616;8.824;2024-02-21T02:03:12;7.70;99.90
66608;DHT22;53462;39.616;8.824;2024-02-21T02:05:48;7.50;99.90
66608;DHT22;53462;39.616;8.824;2024-02-21T02:08:19;7.50;99.90
66608;DHT22;53462;39.616;8.824;2024-02-21T02:10:45;7.60;99.90
66608;DHT22;53462;39.616;8.824;2024-02-21T02:13:11;7.70;99.90
66608;DHT22;53462;39.616;8.824;2024-02-21T02:15:41;7.80;99.90
66608;DHT22;53462;39.616;8.824;2024-02-21T02:18:08;7.90;99.90
66608;DHT22;53462;39.616;8.824;2024-02-21T02:20:34;8.00;99.90
66608;DHT22;53462;39.616;8.824;2024-02-21T02:23:16;8.20;99.90
66608;DHT22;53462;39.616;8.824;2024-02-21T02:25:42;8.30;99.90
66608;DHT22;53462;39.616;8.824;2024-02-21T02:28:09;7.60;99.90
66608;DHT22;53462;39.616;8.824;2024-02-21T02:30:36;7.60;99.90
66608;DHT22;53462;39.616;8.824;2024-02-21T02:33:03;7.70;99.90
66608;DHT22;53462;39.616;8.824;2024-02-21T02:35:29;7.50;99.90
66608;DHT22;53462;39.616;8.824;2024-02-21T02:37:55;7.30;99.90
66608;DHT22;53462;39.616;8.824;2024-02-21T02:40:21;7.20;99.90
66608;DHT22;53462;39.616;8.824;2024-02-21T02:42:47;7.40;99.90
66608;DHT22;53462;39.616;8.824;2024-02-21T02:45:15;7.60;99.90
66608;DHT22;53462;39.616;8.824;2024-02-21T02:47:41;7.70;99.90
66608;DHT22;53462;39.616;8.824;2024-02-21T02:50:07;7.50;99.90
66608;DHT22;53462;39.616;8.824;2024-02-21T02:52:33;7.60;99.90
66608;DHT22;53462;39.616;8.824;2024-02-21T02:54:59;7.70;99.90
66608;DHT22;53462;39.616;8.824;2024-02-21T02:57:27;7.80;99.90
66608;DHT22;53462;39.616;8.824;2024-02-21T02:59:53;7.70;99.90
66608;DHT22;53462;39.616;8.824;2024-02-21T03:02:19;7.70;99.90
66608;DHT22;53462;39.616;8.824;2024-02-21T03:04:45;7.80;99.90
66608;DHT22;53462;39.616;8.824;2024-02-21T03:07:11;7.80;99.90
66608;DHT22;53462;39.616;8.824;2024-02-21T03:09:37;7.70;99.90
66608;DHT22;53462;39.616;8.824;2024-02-21T03:12:05;7.80;99.90
66608;DHT22;53462;39.616;8.824;2024-02-21T03:14:32;8.00;99.90
66608;DHT22;53462;39.616;8.824;2024-02-21T03:17:01;8.00;99.90
66608;DHT22;53462;39.616;8.824;2024-02-21T03:19:27;8.10;99.90
66608;DHT22;53462;39.616;8.824;2024-02-21T03:21:54;8.00;99.90
66608;DHT22;53462;39.616;8.824;2024-02-21T03:24:20;7.90;99.90
66608;DHT22;53462;39.616;8.824;2024-02-21T03:26:47;7.60;99.90
66608;DHT22;53462;39.616;8.824;2024-02-21T03:29:16;7.50;99.90
66608;DHT22;53462;39.616;8.824;2024-02-21T03:31:42;7.60;99.90
66608;DHT22;53462;39.616;8.824;2024-02-21T03:34:10;7.60;99.90
66608;DHT22;53462;39.616;8.824;2024-02-21T03:36:36;7.70;99.90
66608;DHT22;53462;39.616;8.824;2024-02-21T03:39:02;7.70;99.90
66608;DHT22;53462;39.616;8.824;2024-02-21T03:41:29;7.70;99.90
66608;DHT22;53462;39.616;8.824;2024-02-21T03:43:55;7.80;99.90
66608;DHT22;53462;39.616;8.824;2024-02-21T03:46:23;7.80;99.90
66608;DHT22;53462;39.616;8.824;2024-02-21T03:48:49;7.70;99.90
66608;DHT22;53462;39.616;8.824;2024-02-21T03:51:15;7.70;99.90
66608;DHT22;53462;39.616;8.824;2024-02-21T03:53:41;7.70;99.90
66608;DHT22;53462;39.616;8.824;2024-02-21T03:56:07;7.70;99.90
66608;DHT22;53462;39.616;8.824;2024-02-21T03:58:33;7.50;99.90
66608;DHT22;53462;39.616;8.824;2024-02-21T04:01:03;7.40;99.90
66608;DHT22;53462;39.616;8.824;2024-02-21T04:03:30;7.50;99.90
66608;DHT22;53462;39.616;8.824;2024-02-21T04:05:56;7.60;99.90
66608;DHT22;53462;39.616;8.824;2024-02-21T04:08:23;7.70;99.90
66608;DHT22;53462;39.616;8.824;2024-02-21T04:10:49;7.60;99.90
66608;DHT22;53462;39.616;8.824;2024-02-21T04:13:15;7.70;99.90
66608;DHT22;53462;39.616;8.824;2024-02-21T04:15:40;7.90;99.90
66608;DHT22;53462;39.616;8.824;2024-02-21T04:18:06;7.90;99.90
66608;DHT22;53462;39.616;8.824;2024-02-21T04:20:33;7.90;99.90
66608;DHT22;53462;39.616;8.824;2024-02-21T04:22:59;8.00;99.90
66608;DHT22;53462;39.616;8.824;2024-02-21T04:25:25;8.20;99.90
66608;DHT22;53462;39.616;8.824;2024-02-21T04:27:52;8.20;99.90
66608;DHT22;53462;39.616;8.824;2024-02-21T04:30:18;8.10;99.90
66608;DHT22;53462;39.616;8.824;2024-02-21T04:32:44;7.90;99.90
66608;DHT22;53462;39.616;8.824;2024-02-21T04:35:10;7.80;99.90
66608;DHT22;53462;39.616;8.824;2024-02-21T04:37:35;7.70;99.90
66608;DHT22;53462;39.616;8.824;2024-02-21T04:40:01;7.60;99.90
66608;DHT22;53462;39.616;8.824;2024-02-21T04:42:27;7.60;99.90
66608;DHT22;53462;39.616;8.824;2024-02-21T04:44:54;7.50;99.90
66608;DHT22;53462;39.616;8.824;2024-02-21T04:47:19;7.40;99.90
66608;DHT22;53462;39.616;8.824;2024-02-21T04:49:46;7.60;99.90
66608;DHT22;53462;39.616;8.824;2024-02-21T04:52:12;7.90;99.90
66608;DHT22;53462;39.616;8.824;2024-02-21T04:54:38;8.20;99.90
66608;DHT22;53462;39.616;8.824;2024-02-21T04:57:04;8.40;99.90
66608;DHT22;53462;39.616;8.824;2024-02-21T04:59:30;8.50;99.90
66608;DHT22;53462;39.616;8.824;2024-02-21T05:01:56;8.50;99.90
66608;DHT22;53462;39.616;8.824;2024-02-21T05:04:22;8.30;99.90
66608;DHT22;53462;39.616;8.824;2024-02-21T05:06:48;8.10;99.90
66608;DHT22;53462;39.616;8.824;2024-02-21T05:09:14;8.10;99.90
66608;DHT22;53462;39.616;8.824;2024-02-21T05:11:40;8.00;99.90
66608;DHT22;53462;39.616;8.824;2024-02-21T05:14:05;8.00;99.90
66608;DHT22;53462;39.616;8.824;2024-02-21T05:16:32;7.90;99.90
66608;DHT22;53462;39.616;8.824;2024-02-21T05:18:58;7.80;99.90
66608;DHT22;53462;39.616;8.824;2024-02-21T05:21:24;7.70;99.90
66608;DHT22;53462;39.616;8.824;2024-02-21T05:23:51;7.70;99.90
66608;DHT22;53462;39.616;8.824;2024-02-21T05:26:21;7.90;99.90
66608;DHT22;53462;39.616;8.824;2024-02-21T05:28:48;8.10;99.90
66608;DHT22;53462;39.616;8.824;2024-02-21T05:31:15;8.30;99.90
66608;DHT22;53462;39.616;8.824;2024-02-21T05:33:42;8.40;99.90
66608;DHT22;53462;39.616;8.824;2024-02-21T05:36:08;8.50;99.90
66608;DHT22;53462;39.616;8.824;2024-02-21T05:38:34;8.60;99.90
66608;DHT22;53462;39.616;8.824;2024-02-21T05:41:01;8.60;99.90
66608;DHT22;53462;39.616;8.824;2024-02-21T05:43:27;8.50;99.90
66608;DHT22;53462;39.616;8.824;2024-02-21T05:45:53;8.10;99.90
66608;DHT22;53462;39.616;8.824;2024-02-21T05:48:21;7.40;99.90
66608;DHT22;53462;39.616;8.824;2024-02-21T05:50:47;7.10;99.90
66608;DHT22;53462;39.616;8.824;2024-02-21T05:53:13;6.70;99.90
66608;DHT22;53462;39.616;8.824;2024-02-21T05:55:40;6.40;99.90
66608;DHT22;53462;39.616;8.824;2024-02-21T05:58:06;6.30;99.90
66608;DHT22;53462;39.616;8.824;2024-02-21T06:00:32;6.30;99.90
66608;DHT22;53462;39.616;8.824;2024-02-21T06:02:59;6.40;99.90
66608;DHT22;53462;39.616;8.824;2024-02-21T06:05:25;6.60;99.90
66608;DHT22;53462;39.616;8.824;2024-02-21T06:07:51;6.70;99.90
66608;DHT22;53462;39.616;8.824;2024-02-21T06:10:17;6.80;99.90
66608;DHT22;53462;39.616;8.824;2024-02-21T06:12:43;6.80;99.90
66608;DHT22;53462;39.616;8.824;2024-02-21T06:15:09;6.90;99.90
66608;DHT22;53462;39.616;8.824;2024-02-21T06:17:34;6.90;99.90
66608;DHT22;53462;39.616;8.824;2024-02-21T06:20:00;6.80;99.90
66608;DHT22;53462;39.616;8.824;2024-02-21T06:22:26;6.90;99.90
66608;DHT22;53462;39.616;8.824;2024-02-21T06:24:52;6.90;99.90
66608;DHT22;53462;39.616;8.824;2024-02-21T06:27:20;6.90;99.90
66608;DHT22;53462;39.616;8.824;2024-02-21T06:29:46;7.10;99.90
66608;DHT22;53462;39.616;8.824;2024-02-21T06:32:12;7.10;99.90
66608;DHT22;53462;39.616;8.824;2024-02-21T06:34:38;7.00;99.90
66608;DHT22;53462;39.616;8.824;2024-02-21T06:37:03;7.00;99.90
66608;DHT22;53462;39.616;8.824;2024-02-21T06:39:29;7.00;99.90
66608;DHT22;53462;39.616;8.824;2024-02-21T06:41:55;7.20;99.90
66608;DHT22;53462;39.616;8.824;2024-02-21T06:44:22;7.30;99.90
66608;DHT22;53462;39.616;8.824;2024-02-21T06:46:48;7.40;99.90
66608;DHT22;53462;39.616;8.824;2024-02-21T06:49:14;7.40;99.90
66608;DHT22;53462;39.616;8.824;2024-02-21T06:51:43;7.40;99.90
66608;DHT22;53462;39.616;8.824;2024-02-21T06:54:09;7.50;99.90
66608;DHT22;53462;39.616;8.824;2024-02-21T06:56:40;7.60;99.90
66608;DHT22;53462;39.616;8.824;2024-02-21T06:59:06;7.90;99.90
66608;DHT22;53462;39.616;8.824;2024-02-21T07:01:32;8.10;99.90
66608;DHT22;53462;39.616;8.824;2024-02-21T07:03:58;9.00;99.90
66608;DHT22;53462;39.616;8.824;2024-02-21T07:06:24;9.70;99.90
66608;DHT22;53462;39.616;8.824;2024-02-21T07:08:50;10.10;99.90
66608;DHT22;53462;39.616;8.824;2024-02-21T07:11:17;10.80;99.90
66608;DHT22;53462;39.616;8.824;2024-02-21T07:13:42;11.00;96.90
66608;DHT22;53462;39.616;8.824;2024-02-21T07:16:08;10.80;95.70
66608;DHT22;53462;39.616;8.824;2024-02-21T07:18:34;11.10;94.80
66608;DHT22;53462;39.616;8.824;2024-02-21T07:21:00;11.70;92.70
66608;DHT22;53462;39.616;8.824;2024-02-21T07:23:26;11.90;91.20
66608;DHT22;53462;39.616;8.824;2024-02-21T07:25:52;12.50;90.10
66608;DHT22;53462;39.616;8.824;2024-02-21T07:28:18;13.30;88.60
66608;DHT22;53462;39.616;8.824;2024-02-21T07:30:44;14.10;88.00
66608;DHT22;53462;39.616;8.824;2024-02-21T07:33:10;14.60;84.90
66608;DHT22;53462;39.616;8.824;2024-02-21T07:35:35;14.90;81.90
66608;DHT22;53462;39.616;8.824;2024-02-21T07:38:06;14.90;80.10
66608;DHT22;53462;39.616;8.824;2024-02-21T07:40:32;15.20;79.90
66608;DHT22;53462;39.616;8.824;2024-02-21T07:42:58;14.70;80.30
66608;DHT22;53462;39.616;8.824;2024-02-21T07:45:24;14.20;80.70
66608;DHT22;53462;39.616;8.824;2024-02-21T07:47:50;14.30;81.30
66608;DHT22;53462;39.616;8.824;2024-02-21T07:50:16;14.60;78.90
66608;DHT22;53462;39.616;8.824;2024-02-21T07:52:43;16.10;70.10
66608;DHT22;53462;39.616;8.824;2024-02-21T07:55:09;17.00;62.30
66608;DHT22;53462;39.616;8.824;2024-02-21T07:57:36;17.60;60.60
66608;DHT22;53462;39.616;8.824;2024-02-21T08:00:03;18.00;59.40
66608;DHT22;53462;39.616;8.824;2024-02-21T08:02:43;19.00;56.00
66608;DHT22;53462;39.616;8.824;2024-02-21T08:05:09;19.20;54.50
66608;DHT22;53462;39.616;8.824;2024-02-21T08:07:37;19.50;54.90
66608;DHT22;53462;39.616;8.824;2024-02-21T08:10:04;19.40;58.90
66608;DHT22;53462;39.616;8.824;2024-02-21T08:12:30;19.30;57.40
66608;DHT22;53462;39.616;8.824;2024-02-21T08:14:56;19.40;56.90
66608;DHT22;53462;39.616;8.824;2024-02-21T08:17:22;19.30;57.10
66608;DHT22;53462;39.616;8.824;2024-02-21T08:19:47;20.00;55.00
66608;DHT22;53462;39.616;8.824;2024-02-21T08:22:15;20.40;54.60
66608;DHT22;53462;39.616;8.824;2024-02-21T08:24:41;21.00;51.80
66608;DHT22;53462;39.616;8.824;2024-02-21T08:27:07;21.00;50.80
66608;DHT22;53462;39.616;8.824;2024-02-21T08:29:33;22.00;50.40
66608;DHT22;53462;39.616;8.824;2024-02-21T08:31:59;23.30;46.80
66608;DHT22;53462;39.616;8.824;2024-02-21T08:34:25;23.50;47.40
66608;DHT22;53462;39.616;8.824;2024-02-21T08:36:51;23.80;50.70
66608;DHT22;53462;39.616;8.824;2024-02-21T08:39:17;24.00;48.20
66608;DHT22;53462;39.616;8.824;2024-02-21T08:41:42;23.90;46.80
66608;DHT22;53462;39.616;8.824;2024-02-21T08:44:08;24.20;46.10
66608;DHT22;53462;39.616;8.824;2024-02-21T08:46:34;24.20;44.90
66608;DHT22;53462;39.616;8.824;2024-02-21T08:49:00;24.50;45.80
66608;DHT22;53462;39.616;8.824;2024-02-21T08:51:26;24.70;43.60
66608;DHT22;53462;39.616;8.824;2024-02-21T08:53:52;25.00;44.20
66608;DHT22;53462;39.616;8.824;2024-02-21T08:56:19;25.10;42.50
66608;DHT22;53462;39.616;8.824;2024-02-21T08:58:48;26.00;41.60
66608;DHT22;53462;39.616;8.824;2024-02-21T09:01:14;25.80;41.30
66608;DHT22;53462;39.616;8.824;2024-02-21T09:03:40;26.10;40.40
66608;DHT22;53462;39.616;8.824;2024-02-21T09:06:07;26.90;41.40
66608;DHT22;53462;39.616;8.824;2024-02-21T09:08:33;27.00;39.80
66608;DHT22;53462;39.616;8.824;2024-02-21T09:11:03;27.50;37.10
66608;DHT22;53462;39.616;8.824;2024-02-21T09:13:28;26.90;38.30
66608;DHT22;53462;39.616;8.824;2024-02-21T09:15:55;27.00;40.30
66608;DHT22;53462;39.616;8.824;2024-02-21T09:18:21;27.40;38.50
66608;DHT22;53462;39.616;8.824;2024-02-21T09:20:47;28.30;38.00
66608;DHT22;53462;39.616;8.824;2024-02-21T09:23:13;28.30;38.20
66608;DHT22;53462;39.616;8.824;2024-02-21T09:25:39;28.80;36.50
66608;DHT22;53462;39.616;8.824;2024-02-21T09:28:05;29.70;35.90
66608;DHT22;53462;39.616;8.824;2024-02-21T09:30:35;29.90;34.30
66608;DHT22;53462;39.616;8.824;2024-02-21T09:33:01;29.70;33.10
66608;DHT22;53462;39.616;8.824;2024-02-21T09:35:28;29.60;34.60
66608;DHT22;53462;39.616;8.824;2024-02-21T09:37:54;29.80;34.70
66608;DHT22;53462;39.616;8.824;2024-02-21T09:40:20;29.80;35.80
66608;DHT22;53462;39.616;8.824;2024-02-21T09:42:47;30.70;33.00
66608;DHT22;53462;39.616;8.824;2024-02-21T09:45:21;31.70;30.30
66608;DHT22;53462;39.616;8.824;2024-02-21T09:50:19;31.70;30.70
66608;DHT22;53462;39.616;8.824;2024-02-21T09:52:48;31.50;30.60
66608;DHT22;53462;39.616;8.824;2024-02-21T09:55:15;31.50;30.70
66608;DHT22;53462;39.616;8.824;2024-02-21T09:57:44;32.00;30.70
66608;DHT22;53462;39.616;8.824;2024-02-21T10:00:11;32.20;31.30
66608;DHT22;53462;39.616;8.824;2024-02-21T10:02:41;32.50;30.50
66608;DHT22;53462;39.616;8.824;2024-02-21T10:05:07;32.50;30.60
66608;DHT22;53462;39.616;8.824;2024-02-21T10:07:34;32.10;31.40
66608;DHT22;53462;39.616;8.824;2024-02-21T10:10:01;31.60;31.80
66608;DHT22;53462;39.616;8.824;2024-02-21T10:12:27;29.90;30.50
66608;DHT22;53462;39.616;8.824;2024-02-21T10:15:03;27.70;30.10
66608;DHT22;53462;39.616;8.824;2024-02-21T10:17:30;25.20;34.20
66608;DHT22;53462;39.616;8.824;2024-02-21T10:20:06;24.20;36.20
66608;DHT22;53462;39.616;8.824;2024-02-21T10:22:32;23.60;37.70
66608;DHT22;53462;39.616;8.824;2024-02-21T10:25:12;23.50;40.60
66608;DHT22;53462;39.616;8.824;2024-02-21T10:27:39;23.50;40.90
66608;DHT22;53462;39.616;8.824;2024-02-21T10:30:13;23.50;44.10
66608;DHT22;53462;39.616;8.824;2024-02-21T10:32:53;23.60;44.90
66608;DHT22;53462;39.616;8.824;2024-02-21T10:35:33;23.30;43.90
66608;DHT22;53462;39.616;8.824;2024-02-21T10:37:59;23.60;44.60
66608;DHT22;53462;39.616;8.824;2024-02-21T10:40:27;23.60;43.60
66608;DHT22;53462;39.616;8.824;2024-02-21T10:43:01;23.50;46.40
66608;DHT22;53462;39.616;8.824;2024-02-21T10:45:32;23.70;45.80
66608;DHT22;53462;39.616;8.824;2024-02-21T10:48:31;23.90;45.30
66608;DHT22;53462;39.616;8.824;2024-02-21T10:51:12;23.60;45.70
66608;DHT22;53462;39.616;8.824;2024-02-21T10:54:02;23.40;44.90
66608;DHT22;53462;39.616;8.824;2024-02-21T10:56:32;23.20;40.20
66608;DHT22;53462;39.616;8.824;2024-02-21T10:59:06;23.20;41.70
66608;DHT22;53462;39.616;8.824;2024-02-21T11:01:33;23.00;40.30
66608;DHT22;53462;39.616;8.824;2024-02-21T11:04:08;23.10;40.40
66608;DHT22;53462;39.616;8.824;2024-02-21T11:06:38;23.10;39.90
66608;DHT22;53462;39.616;8.824;2024-02-21T11:09:10;23.20;39.60
66608;DHT22;53462;39.616;8.824;2024-02-21T11:11:41;22.60;39.60
66608;DHT22;53462;39.616;8.824;2024-02-21T11:14:17;22.40;40.80
66608;DHT22;53462;39.616;8.824;2024-02-21T11:16:43;22.50;41.20
66608;DHT22;53462;39.616;8.824;2024-02-21T11:19:23;22.50;42.00
66608;DHT22;53462;39.616;8.824;2024-02-21T11:21:49;22.20;42.50
66608;DHT22;53462;39.616;8.824;2024-02-21T11:24:34;22.40;41.20
66608;DHT22;53462;39.616;8.824;2024-02-21T11:27:11;21.90;43.70
66608;DHT22;53462;39.616;8.824;2024-02-21T11:29:54;22.50;45.00
66608;DHT22;53462;39.616;8.824;2024-02-21T11:32:21;22.70;43.40
66608;DHT22;53462;39.616;8.824;2024-02-21T11:34:57;22.90;43.40
66608;DHT22;53462;39.616;8.824;2024-02-21T11:37:27;22.90;43.40
66608;DHT22;53462;39.616;8.824;2024-02-21T11:39:55;22.60;42.80
66608;DHT22;53462;39.616;8.824;2024-02-21T11:42:21;22.50;43.20
66608;DHT22;53462;39.616;8.824;2024-02-21T11:44:47;22.80;40.90
66608;DHT22;53462;39.616;8.824;2024-02-21T11:47:14;22.80;40.20
66608;DHT22;53462;39.616;8.824;2024-02-21T11:49:45;22.70;39.90
66608;DHT22;53462;39.616;8.824;2024-02-21T11:52:12;22.90;40.30
66608;DHT22;53462;39.616;8.824;2024-02-21T11:54:41;22.80;41.10
66608;DHT22;53462;39.616;8.824;2024-02-21T11:57:07;22.90;39.70
66608;DHT22;53462;39.616;8.824;2024-02-21T11:59:33;22.90;40.10
66608;DHT22;53462;39.616;8.824;2024-02-21T12:02:00;22.80;41.80
66608;DHT22;53462;39.616;8.824;2024-02-21T12:04:27;22.90;39.10
66608;DHT22;53462;39.616;8.824;2024-02-21T12:06:53;22.90;39.20
66608;DHT22;53462;39.616;8.824;2024-02-21T12:09:20;23.10;39.50
66608;DHT22;53462;39.616;8.824;2024-02-21T12:11:45;22.80;38.60
66608;DHT22;53462;39.616;8.824;2024-02-21T12:14:24;23.00;38.70
66608;DHT22;53462;39.616;8.824;2024-02-21T12:16:50;22.60;38.70
66608;DHT22;53462;39.616;8.824;2024-02-21T12:19:17;22.40;40.40
66608;DHT22;53462;39.616;8.824;2024-02-21T12:21:42;22.70;38.70
66608;DHT22;53462;39.616;8.824;2024-02-21T12:24:26;22.70;39.30
66608;DHT22;53462;39.616;8.824;2024-02-21T12:26:53;23.00;40.10
66608;DHT22;53462;39.616;8.824;2024-02-21T12:29:20;23.10;40.00
66608;DHT22;53462;39.616;8.824;2024-02-21T12:31:46;23.00;40.50
66608;DHT22;53462;39.616;8.824;2024-02-21T12:34:12;23.20;39.00
66608;DHT22;53462;39.616;8.824;2024-02-21T12:36:42;23.10;39.20
66608;DHT22;53462;39.616;8.824;2024-02-21T12:39:09;22.90;40.30
66608;DHT22;53462;39.616;8.824;2024-02-21T12:41:36;22.90;40.50
66608;DHT22;53462;39.616;8.824;2024-02-21T12:44:07;23.00;40.40
66608;DHT22;53462;39.616;8.824;2024-02-21T12:46:34;22.80;40.70
66608;DHT22;53462;39.616;8.824;2024-02-21T12:49:01;22.90;40.70
66608;DHT22;53462;39.616;8.824;2024-02-21T12:51:27;22.60;41.90
66608;DHT22;53462;39.616;8.824;2024-02-21T12:53:52;22.80;41.40
66608;DHT22;53462;39.616;8.824;2024-02-21T12:56:18;22.80;40.70
66608;DHT22;53462;39.616;8.824;2024-02-21T12:58:44;22.60;41.80
66608;DHT22;53462;39.616;8.824;2024-02-21T13:01:10;22.70;41.60
66608;DHT22;53462;39.616;8.824;2024-02-21T13:03:36;22.70;41.00
66608;DHT22;53462;39.616;8.824;2024-02-21T13:06:04;22.80;41.30
66608;DHT22;53462;39.616;8.824;2024-02-21T13:08:30;22.60;42.00
66608;DHT22;53462;39.616;8.824;2024-02-21T13:10:56;22.40;41.70
66608;DHT22;53462;39.616;8.824;2024-02-21T13:13:22;22.50;40.60
66608;DHT22;53462;39.616;8.824;2024-02-21T13:15:48;22.40;40.90
66608;DHT22;53462;39.616;8.824;2024-02-21T13:18:13;22.10;41.50
66608;DHT22;53462;39.616;8.824;2024-02-21T13:20:39;22.50;39.50
66608;DHT22;53462;39.616;8.824;2024-02-21T13:23:05;22.40;39.50
66608;DHT22;53462;39.616;8.824;2024-02-21T13:25:31;22.80;39.40
66608;DHT22;53462;39.616;8.824;2024-02-21T13:27:57;22.60;39.70
66608;DHT22;53462;39.616;8.824;2024-02-21T13:30:23;22.70;39.50
66608;DHT22;53462;39.616;8.824;2024-02-21T13:32:50;22.30;40.30
66608;DHT22;53462;39.616;8.824;2024-02-21T13:35:16;22.40;40.90
66608;DHT22;53462;39.616;8.824;2024-02-21T13:37:42;22.40;39.20
66608;DHT22;53462;39.616;8.824;2024-02-21T13:40:08;22.50;39.50
66608;DHT22;53462;39.616;8.824;2024-02-21T13:42:39;22.60;40.30
66608;DHT22;53462;39.616;8.824;2024-02-21T13:45:06;22.50;40.90
66608;DHT22;53462;39.616;8.824;2024-02-21T13:47:33;22.60;41.00
66608;DHT22;53462;39.616;8.824;2024-02-21T13:49:59;22.50;42.00
66608;DHT22;53462;39.616;8.824;2024-02-21T13:52:25;22.60;42.60
66608;DHT22;53462;39.616;8.824;2024-02-21T13:54:53;22.40;42.10
66608;DHT22;53462;39.616;8.824;2024-02-21T13:57:19;22.20;43.60
66608;DHT22;53462;39.616;8.824;2024-02-21T13:59:45;22.00;43.50
66608;DHT22;53462;39.616;8.824;2024-02-21T14:02:11;22.10;44.60
66608;DHT22;53462;39.616;8.824;2024-02-21T14:04:38;21.80;44.90
66608;DHT22;53462;39.616;8.824;2024-02-21T14:07:04;21.80;45.90
66608;DHT22;53462;39.616;8.824;2024-02-21T14:09:29;21.60;46.20
66608;DHT22;53462;39.616;8.824;2024-02-21T14:11:56;21.20;46.10
66608;DHT22;53462;39.616;8.824;2024-02-21T14:14:22;21.10;46.80
66608;DHT22;53462;39.616;8.824;2024-02-21T14:16:47;20.90;46.30
66608;DHT22;53462;39.616;8.824;2024-02-21T14:19:14;21.00;47.70
66608;DHT22;53462;39.616;8.824;2024-02-21T14:21:40;20.90;47.80
66608;DHT22;53462;39.616;8.824;2024-02-21T14:24:06;20.80;48.70
66608;DHT22;53462;39.616;8.824;2024-02-21T14:26:32;20.80;50.10
66608;DHT22;53462;39.616;8.824;2024-02-21T14:28:59;20.80;50.10
66608;DHT22;53462;39.616;8.824;2024-02-21T14:31:25;20.60;49.50
66608;DHT22;53462;39.616;8.824;2024-02-21T14:33:51;20.60;51.60
66608;DHT22;53462;39.616;8.824;2024-02-21T14:36:17;20.60;51.60
66608;DHT22;53462;39.616;8.824;2024-02-21T14:38:44;20.70;51.40
66608;DHT22;53462;39.616;8.824;2024-02-21T14:41:10;20.90;50.20
66608;DHT22;53462;39.616;8.824;2024-02-21T14:43:39;20.70;49.70
66608;DHT22;53462;39.616;8.824;2024-02-21T14:46:05;20.50;49.20
66608;DHT22;53462;39.616;8.824;2024-02-21T14:48:32;20.10;49.50
66608;DHT22;53462;39.616;8.824;2024-02-21T14:50:58;20.10;51.30
66608;DHT22;53462;39.616;8.824;2024-02-21T14:53:24;20.00;50.60
66608;DHT22;53462;39.616;8.824;2024-02-21T14:55:50;19.90;50.70
66608;DHT22;53462;39.616;8.824;2024-02-21T14:58:17;19.60;50.70
66608;DHT22;53462;39.616;8.824;2024-02-21T15:00:45;19.60;51.90
66608;DHT22;53462;39.616;8.824;2024-02-21T15:03:13;19.70;50.90
66608;DHT22;53462;39.616;8.824;2024-02-21T15:05:45;19.70;52.10
66608;DHT22;53462;39.616;8.824;2024-02-21T15:08:11;19.70;51.10
66608;DHT22;53462;39.616;8.824;2024-02-21T15:10:38;19.60;51.10
66608;DHT22;53462;39.616;8.824;2024-02-21T15:13:04;19.70;52.10
66608;DHT22;53462;39.616;8.824;2024-02-21T15:15:30;19.80;52.10
66608;DHT22;53462;39.616;8.824;2024-02-21T15:17:56;19.50;52.10
66608;DHT22;53462;39.616;8.824;2024-02-21T15:20:22;19.40;52.40
66608;DHT22;53462;39.616;8.824;2024-02-21T15:22:48;19.30;51.90
66608;DHT22;53462;39.616;8.824;2024-02-21T15:25:14;19.20;51.60
66608;DHT22;53462;39.616;8.824;2024-02-21T15:27:42;19.10;52.90
66608;DHT22;53462;39.616;8.824;2024-02-21T15:30:09;19.10;53.90
66608;DHT22;53462;39.616;8.824;2024-02-21T15:32:36;19.10;54.50
66608;DHT22;53462;39.616;8.824;2024-02-21T15:35:04;18.60;54.40
66608;DHT22;53462;39.616;8.824;2024-02-21T15:37:32;18.70;54.40
66608;DHT22;53462;39.616;8.824;2024-02-21T15:39:58;18.70;55.60